Windsor, United Kingdom
Current Conditions -  °F | °C
As of 6:50 AM on Tuesday 21 Oct 2014 (Local Time) from EGLL Reporting Station
Scattered Clouds Scattered Clouds  
Wind Chill: 57°   Ceiling: Unl
Heat Index: 57°   Visibility: 6mi
Dew Point: 54°   Wind: 16mph
Humidity: 88%   Direction: 220°SW
Pressure: 29.56"   Gusts: NA
Location:  51.48°N, 0.61°W
Report Text: EGLL 210550Z 22014KT 9999 SCT024 SCT034 14/12 Q1001 TEMPO RA
Loading
Personal Weather Stations






























Interactive Weather Map
Tropical Storm Tracking
New forecast layout! Learn more

10-Day Weather Forecast

Advertisements
Track Severe Weather on mobile